FYWH/WDH METAR and TAF weather

Enter ICAO airport designator
Station Type Date Time Source
FYWH METAR 2020/09/20 09:00 UTC NOAA

FYWH 200900Z 00000KT CAVOK 27/M06 Q1024 NOSIG


Station Type Date Time Source
FYWH Decoded METAR 2020/09/20 09:00 UTC NOAA

J. G. Strijdom, Namibia (FYWH) 22-29S 017-28E 1700M
Sep 20, 2020 - 05:00 AM EDT / 2020.09.20 0900 UTC
Wind: Calm:0
Visibility: greater than 7 mile(s):0
Temperature: 80 F (27 C)
Dew Point: 21 F (-6 C)
Relative Humidity: 10%
Pressure (altimeter): 30.24 in. Hg (1024 hPa)
ob: FYWH 200900Z 00000KT CAVOK 27/M06 Q1024 NOSIG
cycle: 9

Station Type Date Time Source
FYWH TAF 2020/09/20 12:00 UTC NOAA

TAF FYWH 201000Z 2012/2112 07004KT CAVOK
BECMG 2013/2015 29016KT
BECMG 2019/2021 23006KT
BECMG 2022/2100 10006KT

Example: see airport list